Flight Number: EUR1565 Duration: 1:30
Departure: Olbia Costa Smeralda (LIEO) at 06:30 Distance: 542 Nm
Arrival: Luxembourg (ELLX) at 08:00 Equipment: B737

Weather Information
Olbia / Costa Smeralda, Italy (LIEO) 40-54N 009-31E 13M Nov 19, 2018 - 05:20 PM EST / 2018.11.19 2220 UTC
Wind: from the SSW (200 degrees) at 2 MPH (2 KT):0
Visibility: 2 mile(s):0
Sky conditions: partly cloudy Weather: shallow fog Temperature: 51 F (11 C) Dew Point: 50 F (10 C) Relative Humidity: 93% Pressure (altimeter): 29.47 in. Hg (0998 hPa)
ob: LIEO 192220Z 20002KT 4000 MIFG SCT055 11/10 Q0998 cycle: 22
Sunrise: 06:17 Sunset: 15:57 (UTC)

Luxembourg / Luxembourg, Luxembourg (ELLX) 49-37N 006-13E 379M Nov 19, 2018 - 05:20 PM EST / 2018.11.19 2220 UTC
Wind: from the ENE (070 degrees) at 14 MPH (12 KT) (direction variable):0
Visibility: greater than 7 mile(s):0
Sky conditions: mostly cloudy Temperature: 33 F (1 C)
Windchill: 23 F (-5 C):1 Dew Point: 28 F (-2 C) Relative Humidity: 80% Pressure (altimeter): 29.74 in. Hg (1007 hPa)
ob: ELLX 192220Z 07012KT 040V100 9999 SCT022 BKN025 01/M02 Q1007 NOSIG cycle: 22
Sunrise: 06:57 Sunset: 15:43 (UTC)

TAF:2018/11/19 18:27 TAF ELLX 191700Z 1918/2024 06013KT 8000 SCT010 BKN020 TEMPO 1918/1921 3500 -SN SCT005 BKN008

Previous Pireps for this route
Date Aircraft Flight time Fuel used Landing rate On time
2016-05-16B73702.0810551-268No
(pireps marked green are flown by you)

Route map